Time;durP1;ratioP1;P1;durP2;ratioP2;P2;SDS_P1;SDS_P2;PMS_P1;PMS_P2;Temp;Humidity;BMP_temperature;BMP_pressure;BME280_temperature;BME280_humidity;BME280_pressure;Samples;Min_cycle;Max_cycle;Signal;HPM_P1;HPM_P2
2023/12/23 00:00:33;;;;;;;;;1.67;1.67;;;;;2.67;100.00;97651.16;6310606;20;3452385;-51
2023/12/23 00:03:01;;;;;;;;;6.75;5.50;;;;;2.72;100.00;97647.25;6328786;20;1821205;-50
2023/12/23 00:05:30;;;;;;;;;7.75;2.50;;;;;2.70;100.00;97657.09;6330203;20;1817969;-50
2023/12/23 00:07:59;;;;;;;;;2.25;2.25;;;;;2.60;100.00;97655.97;6329328;20;1815919;-53
2023/12/23 00:10:26;;;;;;;;;2.00;2.00;;;;;2.67;100.00;97667.91;6311902;20;3454439;-52
2023/12/23 00:12:55;;;;;;;;;7.50;5.75;;;;;2.30;100.00;97662.22;6330960;20;1820071;-52
2023/12/23 00:15:23;;;;;;;;;3.00;3.00;;;;;2.52;100.00;97667.03;6326281;20;1822304;-50
2023/12/23 00:17:52;;;;;;;;;6.00;4.25;;;;;2.50;100.00;97671.59;6331620;20;1825435;-51
2023/12/23 00:20:21;;;;;;;;;2.00;2.00;;;;;2.39;100.00;97680.16;6328169;20;1822530;-52
2023/12/23 00:22:50;;;;;;;;;5.00;5.00;;;;;1.98;100.00;97675.56;6330746;20;1825370;-54
2023/12/23 00:25:19;;;;;;;;;5.00;4.00;;;;;2.22;100.00;97683.00;6325843;20;1814882;-53
2023/12/23 00:27:47;;;;;;;;;3.50;3.50;;;;;2.18;100.00;97669.06;6327149;20;1825389;-53
2023/12/23 00:30:16;;;;;;;;;4.75;4.75;;;;;2.00;100.00;97656.94;6327501;20;1825344;-58
2023/12/23 00:32:45;;;;;;;;;2.00;2.00;;;;;2.03;100.00;97654.13;6310485;20;3447248;-50
2023/12/23 00:35:13;;;;;;;;;4.00;4.00;;;;;1.75;100.00;97666.34;6328950;20;1820115;-49
2023/12/23 00:37:42;;;;;;;;;3.50;3.50;;;;;2.13;100.00;97663.25;6329734;20;1816628;-48
2023/12/23 00:40:11;;;;;;;;;8.25;4.75;;;;;2.10;100.00;97657.25;6328840;20;1821124;-48
2023/12/23 00:42:40;;;;;;;;;5.50;5.50;;;;;1.96;100.00;97644.84;6330180;20;1825264;-48
2023/12/23 00:45:08;;;;;;;;;5.67;4.00;;;;;1.92;100.00;97646.84;6310577;20;3450301;-47
2023/12/23 00:47:36;;;;;;;;;2.00;2.00;;;;;1.93;100.00;97659.13;6329960;20;1815635;-49
2023/12/23 00:50:06;;;;;;;;;2.00;2.00;;;;;1.73;100.00;97638.28;6312066;20;3448202;-48
2023/12/23 00:52:34;;;;;;;;;1.00;1.00;;;;;1.92;100.00;97623.03;6309501;20;3444214;-48
2023/12/23 00:55:02;;;;;;;;;2.00;1.00;;;;;1.70;100.00;97609.34;6312535;20;3438864;-47
2023/12/23 00:57:30;;;;;;;;;1.00;1.00;;;;;1.68;100.00;97613.88;6312372;20;3438874;-47
2023/12/23 00:59:58;;;;;;;;;1.00;1.00;;;;;1.94;100.00;97631.69;6311264;20;3437737;-50
2023/12/23 01:02:25;;;;;;;;;1.00;1.00;;;;;2.03;100.00;97621.50;6310696;20;3452344;-49
2023/12/23 01:04:54;;;;;;;;;1.33;0.00;;;;;1.93;100.00;97619.44;6311778;20;3436074;-53
2023/12/23 01:07:22;;;;;;;;;0.67;0.00;;;;;1.85;100.00;97642.00;6311776;20;3435694;-50
2023/12/23 01:09:50;;;;;;;;;1.00;1.00;;;;;2.03;100.00;97651.50;6310770;20;3440914;-53
2023/12/23 01:12:18;;;;;;;;;0.67;0.67;;;;;2.07;100.00;97670.69;6315153;20;3437786;-52
2023/12/23 01:14:45;;;;;;;;;1.00;1.00;;;;;2.04;100.00;97676.16;6317782;20;3440924;-54
2023/12/23 01:17:13;;;;;;;;;0.00;0.00;;;;;1.76;100.00;97680.41;6313955;20;3446116;-52
2023/12/23 01:19:41;;;;;;;;;0.00;0.00;;;;;1.89;100.00;97681.41;6313596;20;3439987;-52
2023/12/23 01:22:09;;;;;;;;;1.00;1.00;;;;;1.88;100.00;97695.59;6316404;20;2717142;-51
2023/12/23 01:24:37;;;;;;;;;2.67;1.00;;;;;1.87;100.00;97701.81;6315673;20;3440907;-52
2023/12/23 01:27:05;;;;;;;;;1.00;1.00;;;;;1.87;100.00;97730.94;6316658;20;3444014;-53
2023/12/23 01:29:33;;;;;;;;;0.67;0.67;;;;;1.73;100.00;97729.06;6314773;20;3437886;-54
2023/12/23 01:32:00;;;;;;;;;1.00;1.00;;;;;1.65;100.00;97704.84;6313628;20;3434653;-51
2023/12/23 01:34:28;;;;;;;;;1.33;1.33;;;;;1.68;100.00;97667.63;6316433;20;3448301;-51
2023/12/23 01:36:56;;;;;;;;;2.67;1.00;;;;;1.80;100.00;97671.38;6317784;20;3437052;-52
2023/12/23 01:39:24;;;;;;;;;2.00;2.00;;;;;2.01;100.00;97710.75;6314772;20;3446116;-51
2023/12/23 01:41:52;;;;;;;;;2.00;2.00;;;;;1.73;100.00;97707.91;6316191;20;3453414;-49
2023/12/23 01:44:19;;;;;;;;;1.67;1.67;;;;;1.78;100.00;97712.94;6315897;20;3445093;-48
2023/12/23 01:46:48;;;;;;;;;0.67;0.67;;;;;1.64;100.00;97707.59;6313492;20;3439845;-48
2023/12/23 01:49:16;;;;;;;;;3.33;1.00;;;;;1.63;100.00;97690.00;6315452;20;3431590;-48
2023/12/23 01:51:44;;;;;;;;;0.67;0.67;;;;;1.70;100.00;97680.78;6313890;20;3436725;-47
2023/12/23 01:54:13;;;;;;;;;0.00;0.00;;;;;1.62;100.00;97646.84;6317863;20;2717050;-52
2023/12/23 01:56:42;;;;;;;;;1.00;1.00;;;;;1.52;100.00;97617.41;6312447;20;2718113;-52
2023/12/23 01:59:09;;;;;;;;;1.00;1.00;;;;;1.60;100.00;97610.84;6316381;20;3433639;-50
2023/12/23 02:01:40;;;;;;;;;0.00;0.00;;;;;1.64;100.00;97612.38;6313342;20;3440883;-49
2023/12/23 02:04:08;;;;;;;;;0.00;0.00;;;;;1.79;100.00;97616.78;6315280;20;3435684;-51
2023/12/23 02:06:36;;;;;;;;;0.00;0.00;;;;;1.80;100.00;97623.75;6315545;20;3432536;-49
2023/12/23 02:09:05;;;;;;;;;0.00;0.00;;;;;1.69;100.00;97631.47;6315343;20;3435673;-50
2023/12/23 02:12:13;;;;;;;;;0.00;0.00;;;;;1.82;100.00;97648.31;6314053;20;3436137;-47
2023/12/23 02:15:10;;;;;;;;;0.00;0.00;;;;;1.90;100.00;97667.25;6316483;20;2725564;-48
2023/12/23 02:17:39;;;;;;;;;0.00;0.00;;;;;1.93;100.00;97698.81;6311507;20;3441916;-49
2023/12/23 02:20:08;;;;;;;;;0.00;0.00;;;;;2.03;100.00;97703.56;6314418;20;3433986;-52
2023/12/23 02:22:38;;;;;;;;;0.00;0.00;;;;;1.87;100.00;97715.06;6312811;20;3443996;-53
2023/12/23 02:25:07;;;;;;;;;0.00;0.00;;;;;1.82;100.00;97730.34;6316155;20;3443993;-53
2023/12/23 02:27:45;;;;;;;;;1.00;1.00;;;;;1.54;100.00;97708.09;6313218;20;3446114;-49
2023/12/23 02:30:16;;;;;;;;;1.00;1.00;;;;;1.63;100.00;97697.94;6312102;20;3435706;-49
2023/12/23 02:32:44;;;;;;;;;1.00;1.00;;;;;1.40;100.00;97681.59;6314368;20;3438921;-52
2023/12/23 02:35:13;;;;;;;;;1.00;1.00;;;;;1.52;100.00;97677.41;6316987;20;3434674;-52
2023/12/23 02:37:41;;;;;;;;;0.33;0.33;;;;;1.43;100.00;97662.91;6315325;20;3437781;-54
2023/12/23 02:40:10;;;;;;;;;0.00;0.00;;;;;1.59;100.00;97664.69;6313493;20;3437772;-53
2023/12/23 02:42:37;;;;;;;;;1.00;1.00;;;;;1.70;100.00;97659.63;6316042;20;3446128;-47
2023/12/23 02:45:06;;;;;;;;;0.00;0.00;;;;;1.81;100.00;97673.06;6314638;20;3444006;-49
2023/12/23 02:47:34;;;;;;;;;0.00;0.00;;;;;1.95;100.00;97685.50;6316688;20;3436231;-54
2023/12/23 02:50:02;;;;;;;;;0.00;0.00;;;;;1.84;100.00;97680.81;6314849;20;3434681;-51
2023/12/23 02:52:33;;;;;;;;;0.00;0.00;;;;;2.02;100.00;97670.09;6351891;20;2694071;-47
2023/12/23 02:55:04;;;;;;;;;0.00;0.00;;;;;1.98;100.00;97667.63;6350790;20;2716992;-50
2023/12/23 02:57:32;;;;;;;;;0.00;0.00;;;;;2.03;100.00;97656.78;6286118;20;2712781;-49
2023/12/23 03:00:03;;;;;;;;;0.00;0.00;;;;;2.06;100.00;97666.34;6350533;20;2714975;-52
2023/12/23 03:02:34;;;;;;;;;0.00;0.00;;;;;2.06;100.00;97676.94;6317039;20;2706692;-53
2023/12/23 03:05:02;;;;;;;;;0.00;0.00;;;;;1.95;100.00;97686.34;6281390;20;2727503;-54
2023/12/23 03:07:30;;;;;;;;;0.00;0.00;;;;;1.88;100.00;97700.03;6313336;20;3441926;-50
2023/12/23 03:09:57;;;;;;;;;0.00;0.00;;;;;1.96;100.00;97716.31;6308324;20;3435778;-53
2023/12/23 03:12:25;;;;;;;;;1.00;1.00;;;;;1.86;100.00;97744.25;6308245;20;2727462;-53
2023/12/23 03:14:53;;;;;;;;;1.33;0.33;;;;;1.68;100.00;97754.06;6310771;20;3440006;-49
2023/12/23 03:17:21;;;;;;;;;1.00;1.00;;;;;1.62;100.00;97744.69;6311210;20;3445038;-47
2023/12/23 03:19:49;;;;;;;;;4.00;1.33;;;;;1.67;100.00;97741.81;6312896;20;3444039;-48
2023/12/23 03:22:18;;;;;;;;;4.33;3.33;;;;;1.75;100.00;97742.22;6313651;20;3447126;-51
2023/12/23 03:24:46;;;;;;;;;2.00;2.00;;;;;1.73;100.00;97741.44;6311458;20;3447092;-51
2023/12/23 03:27:14;;;;;;;;;2.00;2.00;;;;;1.70;100.00;97744.25;6330064;20;1809738;-49
2023/12/23 03:29:42;;;;;;;;;4.00;2.00;;;;;1.79;100.00;97758.75;6314227;20;3439994;-50
2023/12/23 03:32:10;;;;;;;;;3.33;3.33;;;;;1.93;100.00;97764.97;6311462;20;3461703;-47
2023/12/23 03:34:41;;;;;;;;;3.50;2.50;;;;;1.74;100.00;97777.56;6329992;20;1815934;-49
2023/12/23 03:37:09;;;;;;;;;2.00;2.00;;;;;1.78;100.00;97783.50;6313267;20;3450281;-54
2023/12/23 03:39:38;;;;;;;;;2.00;2.00;;;;;1.70;100.00;97805.94;6330982;20;1820221;-52
2023/12/23 03:42:06;;;;;;;;;4.00;3.33;;;;;1.96;100.00;97815.06;6307712;20;3472183;-47
2023/12/23 03:44:35;;;;;;;;;3.50;2.00;;;;;1.84;100.00;97809.63;6298715;20;1825328;-50
2023/12/23 03:47:03;;;;;;;;;5.00;3.33;;;;;1.68;100.00;97788.47;6308935;20;3472166;-48
2023/12/23 03:49:31;;;;;;;;;3.00;3.00;;;;;1.71;100.00;97767.13;6298864;20;1823210;-53
2023/12/23 03:51:59;;;;;;;;;3.33;3.33;;;;;1.66;100.00;97761.25;6311428;20;3460734;-47
2023/12/23 03:54:27;;;;;;;;;4.67;3.33;;;;;1.68;100.00;97746.97;6279966;20;3470084;-47
2023/12/23 03:56:55;;;;;;;;;1.00;1.00;;;;;1.89;100.00;97755.50;6312904;20;3444126;-50
2023/12/23 03:59:22;;;;;;;;;2.00;2.00;;;;;2.04;100.00;97755.56;6311040;20;3448201;-49
2023/12/23 04:01:50;;;;;;;;;4.33;2.00;;;;;1.93;100.00;97762.31;6311915;20;3449185;-50
2023/12/23 04:04:20;;;;;;;;;1.00;1.00;;;;;2.05;100.00;97757.25;6312238;20;3444030;-50
2023/12/23 04:06:47;;;;;;;;;0.00;0.00;;;;;2.04;100.00;97755.56;6312732;20;2726423;-47
2023/12/23 04:09:17;;;;;;;;;0.00;0.00;;;;;1.91;100.00;97737.75;6313838;20;2724334;-48
2023/12/23 04:11:45;;;;;;;;;0.00;0.00;;;;;2.00;100.00;97751.38;6313273;20;2724323;-47
2023/12/23 04:14:13;;;;;;;;;2.00;0.00;;;;;2.06;100.00;97746.59;6311715;20;2723420;-47
2023/12/23 04:16:41;;;;;;;;;0.00;0.00;;;;;1.98;100.00;97732.97;6312431;20;3435733;-47
2023/12/23 04:19:09;;;;;;;;;0.00;0.00;;;;;1.97;100.00;97721.53;6310802;20;3434641;-52
2023/12/23 04:21:37;;;;;;;;;1.00;1.00;;;;;1.97;100.00;97707.41;6313114;20;3444221;-47
2023/12/23 04:24:05;;;;;;;;;0.00;0.00;;;;;1.84;100.00;97691.41;6312703;20;3441971;-48
2023/12/23 04:26:33;;;;;;;;;0.00;0.00;;;;;2.04;100.00;97694.69;6311292;20;2725463;-48
2023/12/23 04:29:01;;;;;;;;;0.00;0.00;;;;;1.87;100.00;97678.00;6312993;20;3442014;-50
2023/12/23 04:31:29;;;;;;;;;0.00;0.00;;;;;1.95;100.00;97675.75;6313279;20;3433578;-51
2023/12/23 04:33:57;;;;;;;;;1.67;1.67;;;;;1.91;100.00;97691.91;6313934;20;3444036;-50
2023/12/23 04:36:25;;;;;;;;;0.00;0.00;;;;;2.04;100.00;97690.25;6313503;20;3435719;-48
2023/12/23 04:38:52;;;;;;;;;0.00;0.00;;;;;1.99;100.00;97681.72;6312132;20;3430638;-48
2023/12/23 04:41:20;;;;;;;;;0.00;0.00;;;;;2.07;100.00;97678.63;6313076;20;3437834;-46
2023/12/23 04:43:48;;;;;;;;;0.00;0.00;;;;;2.11;100.00;97674.84;6314579;20;2706589;-49
2023/12/23 04:46:16;;;;;;;;;0.67;0.00;;;;;2.00;100.00;97683.41;6315912;20;3437887;-53
2023/12/23 04:48:44;;;;;;;;;0.00;0.00;;;;;2.03;100.00;97685.91;6316068;20;3442082;-47
2023/12/23 04:51:12;;;;;;;;;0.00;0.00;;;;;1.98;100.00;97702.03;6317758;20;3437817;-48
2023/12/23 04:53:39;;;;;;;;;0.00;0.00;;;;;1.93;100.00;97719.13;6317766;20;3446100;-47
2023/12/23 04:56:07;;;;;;;;;0.00;0.00;;;;;1.75;100.00;97726.34;6314727;20;3446170;-50
2023/12/23 04:58:35;;;;;;;;;0.00;0.00;;;;;1.90;100.00;97737.84;6315914;20;3435901;-48
2023/12/23 05:01:04;;;;;;;;;0.00;0.00;;;;;1.85;100.00;97731.97;6315688;20;3446141;-48
2023/12/23 05:03:34;;;;;;;;;0.00;0.00;;;;;1.86;100.00;97729.22;6316123;20;3444072;-48
2023/12/23 05:06:02;;;;;;;;;0.00;0.00;;;;;1.91;100.00;97753.63;6315186;20;3446206;-49
2023/12/23 05:08:30;;;;;;;;;0.00;0.00;;;;;1.93;100.00;97770.25;6318449;20;3446126;-48
2023/12/23 05:10:58;;;;;;;;;0.00;0.00;;;;;2.10;100.00;97779.00;6315988;20;3446226;-55
2023/12/23 05:13:25;;;;;;;;;0.00;0.00;;;;;1.92;100.00;97781.81;6316486;20;3441945;-49
2023/12/23 05:15:53;;;;;;;;;0.00;0.00;;;;;1.80;100.00;97786.94;6316895;20;3430597;-52
2023/12/23 05:18:21;;;;;;;;;2.00;0.00;;;;;1.96;100.00;97801.84;6317992;20;3439875;-50
2023/12/23 05:20:52;;;;;;;;;0.00;0.00;;;;;1.90;100.00;97815.44;6353044;20;2616371;-50
2023/12/23 05:23:19;;;;;;;;;0.00;0.00;;;;;1.74;100.00;97819.88;6287284;20;3442957;-48
2023/12/23 05:25:48;;;;;;;;;0.00;0.00;;;;;1.94;100.00;97830.19;6315467;20;3434637;-50
2023/12/23 05:28:16;;;;;;;;;2.67;1.00;;;;;2.12;100.00;97835.38;6316300;20;3443990;-54
2023/12/23 05:30:44;;;;;;;;;2.67;0.00;;;;;2.07;100.00;97837.44;6315208;20;3444057;-54
2023/12/23 05:33:12;;;;;;;;;1.00;1.00;;;;;1.97;100.00;97837.97;6316646;20;3444063;-51
2023/12/23 05:35:40;;;;;;;;;0.00;0.00;;;;;2.00;100.00;97863.38;6317646;20;3442957;-52
2023/12/23 05:38:07;;;;;;;;;1.00;1.00;;;;;2.12;100.00;97861.84;6316881;20;3444014;-54
2023/12/23 05:40:37;;;;;;;;;0.00;0.00;;;;;2.08;100.00;97870.88;6314741;20;3444120;-53
2023/12/23 05:43:07;;;;;;;;;2.00;1.00;;;;;2.14;100.00;97875.84;6359235;20;2548283;-55
2023/12/23 05:45:35;;;;;;;;;1.00;1.00;;;;;2.09;100.00;97883.19;6288307;20;2729581;-52
2023/12/23 05:48:04;;;;;;;;;1.33;1.00;;;;;2.14;100.00;97884.66;6317201;20;3447603;-50
2023/12/23 05:50:32;;;;;;;;;0.00;0.00;;;;;2.30;100.00;97874.03;6314618;20;3435760;-53
2023/12/23 05:53:00;;;;;;;;;1.00;1.00;;;;;2.18;100.00;97877.38;6313493;20;3441925;-55
2023/12/23 05:55:28;;;;;;;;;0.00;0.00;;;;;2.15;100.00;97874.91;6316659;20;3444019;-51
2023/12/23 05:57:55;;;;;;;;;1.00;1.00;;;;;2.15;100.00;97893.44;6313182;20;3448213;-53
2023/12/23 06:00:23;;;;;;;;;0.67;0.00;;;;;2.37;100.00;97904.53;6314854;20;3432639;-53
2023/12/23 06:02:51;;;;;;;;;0.33;0.33;;;;;2.14;100.00;97907.63;6316702;20;3437838;-49
2023/12/23 06:05:19;;;;;;;;;1.33;0.00;;;;;2.41;100.00;97914.00;6317582;20;3433097;-52
2023/12/23 06:07:47;;;;;;;;;0.00;0.00;;;;;2.44;100.00;97915.59;6314703;20;3440993;-50
2023/12/23 06:10:15;;;;;;;;;0.00;0.00;;;;;2.47;100.00;97914.59;6315478;20;3436772;-49
2023/12/23 06:12:43;;;;;;;;;0.00;0.00;;;;;2.73;100.00;97926.31;6317639;20;3439878;-53
2023/12/23 06:15:11;;;;;;;;;0.00;0.00;;;;;2.55;100.00;97912.34;6315585;20;3437750;-55
2023/12/23 06:17:38;;;;;;;;;0.33;0.33;;;;;2.60;100.00;97910.28;6317703;20;3437761;-54
2023/12/23 06:20:07;;;;;;;;;0.00;0.00;;;;;2.52;100.00;97897.47;6316006;20;3432596;-54
2023/12/23 06:22:38;;;;;;;;;0.00;0.00;;;;;2.57;100.00;97879.53;6351735;20;2708658;-53
2023/12/23 06:25:07;;;;;;;;;0.00;0.00;;;;;2.50;100.00;97887.91;6285867;20;3446093;-53
2023/12/23 06:27:35;;;;;;;;;18.25;10.75;;;;;2.57;100.00;97899.88;6328667;20;1820843;-51
2023/12/23 06:30:03;;;;;;;;;3.33;1.33;;;;;2.53;100.00;97906.31;6313849;20;3446229;-55
2023/12/23 06:32:31;;;;;;;;;0.67;0.67;;;;;2.42;100.00;97893.66;6314763;20;3442003;-54
2023/12/23 06:35:00;;;;;;;;;1.00;1.00;;;;;2.51;100.00;97889.63;6315254;20;3436793;-54
2023/12/23 06:37:27;;;;;;;;;2.00;1.00;;;;;2.41;100.00;97876.06;6314655;20;3446095;-55
2023/12/23 06:39:57;;;;;;;;;4.00;1.00;;;;;2.49;100.00;97881.75;6333854;20;1809996;-54
2023/12/23 06:42:25;;;;;;;;;9.00;5.00;;;;;2.62;100.00;97908.41;6314112;20;2748237;-54
2023/12/23 06:44:53;;;;;;;;;4.00;2.00;;;;;2.66;100.00;97928.50;6313512;20;3455498;-54
2023/12/23 06:47:21;;;;;;;;;4.00;1.00;;;;;2.71;100.00;97939.66;6314247;20;3450249;-56
2023/12/23 06:49:48;;;;;;;;;1.33;1.33;;;;;2.55;100.00;97949.44;6314519;20;3450253;-53
2023/12/23 06:52:16;;;;;;;;;2.00;2.00;;;;;2.70;100.00;97948.56;6314112;20;3440921;-53
2023/12/23 06:54:44;;;;;;;;;0.67;0.00;;;;;2.59;100.00;97969.53;6315493;20;3440047;-55
2023/12/23 06:57:12;;;;;;;;;0.00;0.00;;;;;2.75;100.00;97977.44;6317528;20;2723294;-52
2023/12/23 06:59:39;;;;;;;;;4.33;2.00;;;;;2.71;100.00;97986.50;6314972;20;3457638;-54
2023/12/23 07:02:07;;;;;;;;;0.00;0.00;;;;;2.94;100.00;97991.34;6314938;20;3436774;-57
2023/12/23 07:04:35;;;;;;;;;1.00;1.00;;;;;2.95;100.00;97986.88;6315909;20;3435811;-50
2023/12/23 07:07:03;;;;;;;;;2.00;0.67;;;;;3.01;100.00;98007.75;6314560;20;3448309;-52
2023/12/23 07:09:31;;;;;;;;;4.00;0.33;;;;;2.67;100.00;97990.28;6312027;20;3436854;-54
2023/12/23 07:11:58;;;;;;;;;1.67;1.00;;;;;3.08;100.00;98017.03;6316064;20;3434780;-55
2023/12/23 07:14:26;;;;;;;;;5.00;2.00;;;;;3.12;100.00;98045.09;6312946;20;3472159;-54
2023/12/23 07:16:55;;;;;;;;;2.75;2.00;;;;;2.89;100.00;98042.91;6298464;20;1817011;-51
2023/12/23 07:19:23;;;;;;;;;1.00;1.00;;;;;2.86;100.00;98052.72;6315086;20;3439861;-51
2023/12/23 07:21:53;;;;;;;;;5.00;3.00;;;;;2.87;100.00;98050.97;6332261;20;1817168;-55
2023/12/23 07:24:21;;;;;;;;;4.33;1.00;;;;;2.81;100.00;98052.13;6313459;20;3442975;-56
2023/12/23 07:26:49;;;;;;;;;6.67;1.67;;;;;2.88;100.00;98051.81;6314334;20;3437784;-52
2023/12/23 07:29:18;;;;;;;;;1.00;1.00;;;;;2.91;100.00;98056.94;6328971;20;1816026;-53
2023/12/23 07:31:46;;;;;;;;;1.00;1.00;;;;;2.99;100.00;98083.84;6314741;20;3437798;-53
2023/12/23 07:34:15;;;;;;;;;1.00;1.00;;;;;2.82;100.00;98090.13;6327823;20;1809658;-54
2023/12/23 07:36:43;;;;;;;;;20.00;17.50;;;;;2.95;100.00;98100.88;6309420;20;2836796;-50
2023/12/23 07:39:14;;;;;;;;;11.00;5.25;;;;;3.07;100.00;98114.28;6295814;20;1827487;-53
2023/12/23 07:41:42;;;;;;;;;10.50;8.75;;;;;3.10;100.00;98130.97;6332409;20;1816545;-56
2023/12/23 07:44:10;;;;;;;;;3.33;3.33;;;;;3.15;100.00;98140.38;6310025;20;3455662;-53
2023/12/23 07:46:39;;;;;;;;;2.00;2.00;;;;;3.04;100.00;98142.78;6327885;20;1814880;-55
2023/12/23 07:49:07;;;;;;;;;23.67;22.00;;;;;3.10;100.00;98138.94;6309951;20;2832990;-55
2023/12/23 07:51:37;;;;;;;;;49.33;39.00;;;;;3.12;100.00;98151.16;6309387;20;2877528;-55
2023/12/23 07:54:06;;;;;;;;;77.67;56.00;;;;;3.15;100.00;98158.94;6310943;20;2893157;-53
2023/12/23 07:56:36;;;;;;;;;102.33;78.00;;;;;2.94;100.00;98152.19;6310817;20;3692978;-55
2023/12/23 07:59:06;;;;;;;;;105.67;91.67;;;;;3.06;100.00;98154.16;6276938;20;3665225;-59
2023/12/23 08:01:34;;;;;;;;;38.00;27.50;;;;;3.17;100.00;98165.00;6313524;20;2861782;-54
2023/12/23 08:04:03;;;;;;;;;54.00;42.00;;;;;3.22;100.00;98183.34;6280139;20;2851778;-54
2023/12/23 08:06:31;;;;;;;;;3.50;2.00;;;;;3.30;100.00;98187.25;6294238;20;1807693;-56
2023/12/23 08:08:59;;;;;;;;;6.33;4.00;;;;;3.32;100.00;98192.50;6278135;20;3468075;-53
2023/12/23 08:11:29;;;;;;;;;21.60;18.00;;;;;3.30;100.00;98197.88;6301534;20;2828395;-54
2023/12/23 08:13:58;;;;;;;;;7.25;6.50;;;;;3.25;100.00;98205.22;6298535;20;1821211;-55
2023/12/23 08:16:26;;;;;;;;;6.00;1.00;;;;;3.47;100.00;98214.63;6304702;20;3434670;-54
2023/12/23 08:18:55;;;;;;;;;11.00;11.00;;;;;3.68;100.00;98201.94;6335779;20;2797150;-55
2023/12/23 08:21:23;;;;;;;;;1.00;1.00;;;;;3.42;100.00;98204.28;6280429;20;3445148;-55
2023/12/23 08:23:53;;;;;;;;;61.67;46.33;;;;;3.42;100.00;98212.25;6310509;20;2873319;-53
2023/12/23 08:26:21;;;;;;;;;28.00;20.50;;;;;3.73;100.00;98214.00;6305807;20;2844034;-54
2023/12/23 08:28:52;;;;;;;;;45.00;34.67;;;;;3.56;100.00;98222.09;6302777;20;3628595;-54
2023/12/23 08:31:20;;;;;;;;;2.00;2.00;;;;;3.52;99.45;98223.19;6277965;20;2747117;-55
2023/12/23 08:33:49;;;;;;;;;25.50;20.00;;;;;3.71;98.50;98234.47;6278456;20;2835703;-53
2023/12/23 08:36:18;;;;;;;;;19.00;16.00;;;;;3.51;98.38;98237.41;6281656;20;3560671;-56
2023/12/23 08:38:48;;;;;;;;;15.00;11.00;;;;;3.52;97.66;98236.44;6311050;20;2786764;-53
2023/12/23 08:41:16;;;;;;;;;5.25;5.00;;;;;3.54;96.20;98241.69;6296759;20;1825432;-52
2023/12/23 08:43:44;;;;;;;;;12.00;11.00;;;;;3.66;97.68;98257.78;6310977;20;2789957;-52
2023/12/23 08:46:12;;;;;;;;;5.00;2.67;;;;;3.82;95.85;98259.53;6279743;20;3457680;-55
2023/12/23 08:48:40;;;;;;;;;1.00;1.00;;;;;3.77;94.36;98256.31;6310735;20;3445247;-50
2023/12/23 08:51:09;;;;;;;;;7.50;5.50;;;;;3.74;94.33;98254.69;6326451;20;1821169;-50
2023/12/23 08:53:37;;;;;;;;;6.00;6.00;;;;;3.81;94.20;98271.97;6330486;20;1808693;-48
2023/12/23 08:56:06;;;;;;;;;8.50;6.75;;;;;3.79;94.10;98272.97;6329537;20;1820842;-55
2023/12/23 08:58:34;;;;;;;;;9.67;9.67;;;;;3.84;94.01;98261.16;6313269;20;3497298;-50
2023/12/23 09:01:03;;;;;;;;;3.00;2.00;;;;;3.89;94.34;98268.88;6298370;20;1823224;-53
2023/12/23 09:03:32;;;;;;;;;2.50;2.50;;;;;3.89;95.07;98266.22;6332259;20;1825423;-49
2023/12/23 09:06:00;;;;;;;;;2.50;1.00;;;;;3.99;93.53;98270.06;6329408;20;1816399;-51
2023/12/23 09:08:29;;;;;;;;;4.50;2.00;;;;;3.90;93.68;98281.22;6332364;20;1811792;-53
2023/12/23 09:10:57;;;;;;;;;3.00;3.00;;;;;4.11;93.11;98289.75;6310710;20;3470084;-52
2023/12/23 09:13:25;;;;;;;;;11.00;10.00;;;;;4.17;92.89;98284.91;6280008;20;2784723;-52
2023/12/23 09:15:53;;;;;;;;;9.00;7.25;;;;;3.92;92.71;98292.59;6300546;20;1815612;-52
2023/12/23 09:18:22;;;;;;;;;6.25;5.00;;;;;3.85;93.89;98278.81;6331267;20;1825355;-49
2023/12/23 09:20:51;;;;;;;;;8.00;5.00;;;;;4.07;93.19;98291.72;6329443;20;1815952;-52
2023/12/23 09:23:19;;;;;;;;;5.25;5.25;;;;;3.92;93.65;98279.31;6330424;20;1820794;-54
2023/12/23 09:25:47;;;;;;;;;1.00;1.00;;;;;3.94;93.89;98290.69;6310229;20;3431634;-55
2023/12/23 09:28:17;;;;;;;;;2.00;2.00;;;;;4.17;93.54;98290.22;6328068;20;1823280;-53
2023/12/23 09:30:44;;;;;;;;;0.67;0.67;;;;;4.22;96.13;98291.78;6313475;20;3439883;-53
2023/12/23 09:33:12;;;;;;;;;19.50;15.00;;;;;4.28;94.99;98286.09;6313980;20;2500396;-49
2023/12/23 09:35:42;;;;;;;;;7.00;7.00;;;;;4.13;92.85;98288.72;6306716;20;1817006;-52
2023/12/23 09:38:11;;;;;;;;;3.00;2.00;;;;;4.26;94.41;98293.28;6334208;20;1818070;-50
2023/12/23 09:40:39;;;;;;;;;2.00;2.00;;;;;4.55;93.91;98313.69;6319948;20;3455476;-50
2023/12/23 09:43:08;;;;;;;;;2.25;2.25;;;;;4.27;94.18;98310.97;6333022;20;1815968;-51
2023/12/23 09:45:37;;;;;;;;;5.75;5.75;;;;;4.18;92.75;98307.88;6333397;20;1825399;-53
2023/12/23 09:48:06;;;;;;;;;7.25;5.25;;;;;4.26;92.15;98307.44;6332279;20;1818021;-47
2023/12/23 09:50:35;;;;;;;;;6.00;3.50;;;;;4.12;91.99;98294.97;6334827;20;1808268;-43
2023/12/23 09:53:06;;;;;;;;;5.00;5.00;;;;;4.01;92.29;98293.88;6314333;20;3466048;-46
2023/12/23 09:55:34;;;;;;;;;9.00;8.50;;;;;4.25;92.33;98292.44;6283926;20;2752381;-43
2023/12/23 09:58:03;;;;;;;;;6.50;6.00;;;;;4.03;92.70;98290.19;6333360;20;1820234;-47
2023/12/23 10:00:31;;;;;;;;;3.00;3.00;;;;;4.27;93.26;98305.66;6313929;20;3461752;-47
2023/12/23 10:03:02;;;;;;;;;4.75;4.00;;;;;4.00;93.37;98297.47;6299841;20;1814366;-44
2023/12/23 10:05:31;;;;;;;;;20.00;15.00;;;;;4.09;94.63;98297.78;6316406;20;2815142;-43
2023/12/23 10:07:59;;;;;;;;;18.00;12.00;;;;;4.07;94.72;98314.75;6313866;20;2803416;-43
2023/12/23 10:10:35;;;;;;;;;19.33;15.00;;;;;3.88;95.04;98314.97;6281729;20;3553430;-44
2023/12/23 10:13:03;;;;;;;;;10.00;7.00;;;;;3.90;95.27;98308.63;6316526;20;2753474;-44
2023/12/23 10:15:32;;;;;;;;;20.00;17.50;;;;;3.90;95.71;98313.06;6314076;20;2839958;-47
2023/12/23 10:18:03;;;;;;;;;17.60;10.60;;;;;3.94;95.77;98319.91;6308149;20;2800459;-44
2023/12/23 10:20:33;;;;;;;;;10.50;7.00;;;;;3.90;96.71;98324.53;6302980;20;1807683;-52
2023/12/23 10:23:00;;;;;;;;;15.50;13.00;;;;;3.80;97.22;98333.13;6313220;20;2796179;-52
2023/12/23 10:25:30;;;;;;;;;2.75;2.75;;;;;3.81;97.93;98334.81;6305885;20;1816002;-53
2023/12/23 10:28:00;;;;;;;;;6.50;6.50;;;;;3.85;96.48;98325.75;6315542;20;2750379;-47
2023/12/23 10:30:37;;;;;;;;;10.00;5.25;;;;;3.72;96.65;98321.13;6329315;20;1822249;-46
2023/12/23 10:33:08;;;;;;;;;8.75;5.75;;;;;3.77;95.90;98317.38;6333734;20;1825397;-49
2023/12/23 10:35:48;;;;;;;;;11.50;8.00;;;;;3.89;95.23;98312.19;6328248;20;1828529;-48
2023/12/23 10:38:22;;;;;;;;;10.50;9.00;;;;;3.89;95.43;98328.13;6315186;20;2747204;-47
2023/12/23 10:41:34;;;;;;;;;10.50;5.25;;;;;4.07;96.30;98309.44;6301946;20;1828556;-46
2023/12/23 10:44:05;;;;;;;;;11.00;7.00;;;;;4.02;93.15;98312.34;6311510;20;2767022;-44
2023/12/23 10:46:34;;;;;;;;;17.33;14.67;;;;;4.22;94.72;98313.03;6282685;20;3553397;-46
2023/12/23 10:49:05;;;;;;;;;14.50;10.50;;;;;4.38;94.71;98316.50;6312132;20;2799234;-44
2023/12/23 10:51:33;;;;;;;;;15.00;10.00;;;;;4.08;93.31;98306.72;6277356;20;2775279;-44
2023/12/23 10:54:03;;;;;;;;;6.67;6.67;;;;;3.97;93.58;98309.09;6304164;20;1812929;-44
2023/12/23 10:56:31;;;;;;;;;18.50;10.50;;;;;4.10;92.28;98310.13;6312939;20;2797261;-45
2023/12/23 10:59:02;;;;;;;;;18.67;18.67;;;;;3.86;92.73;98307.06;6280760;20;3557547;-44
2023/12/23 11:01:33;;;;;;;;;19.00;15.00;;;;;4.06;92.15;98308.59;6284583;20;2824240;-44
2023/12/23 11:04:03;;;;;;;;;17.67;13.33;;;;;3.93;91.40;98318.22;6282650;20;3527375;-43
2023/12/23 11:06:37;;;;;;;;;9.00;7.00;;;;;3.99;90.74;98317.84;6314040;20;2748198;-47
2023/12/23 11:09:09;;;;;;;;;15.00;15.00;;;;;3.92;90.12;98319.13;6282353;20;3532641;-45
2023/12/23 11:11:38;;;;;;;;;15.50;12.00;;;;;3.94;91.31;98310.13;6317030;20;2798196;-45
2023/12/23 11:14:08;;;;;;;;;10.00;5.00;;;;;3.97;89.26;98319.72;6297810;20;1831606;-45
2023/12/23 11:16:39;;;;;;;;;6.00;6.00;;;;;3.93;89.35;98321.72;6311893;20;2751329;-44
2023/12/23 11:19:08;;;;;;;;;14.33;7.00;;;;;3.84;91.18;98308.09;6304295;20;1817219;-45
2023/12/23 11:21:36;;;;;;;;;15.50;11.00;;;;;3.99;89.47;98304.56;6312058;20;2798185;-44
2023/12/23 11:24:33;;;;;;;;;16.00;14.00;;;;;4.03;89.37;98297.28;6282635;20;2803454;-44